createdAt,value
2022-09-13T00:01:30.032Z,10.40
2022-09-13T00:03:57.132Z,10.50
2022-09-13T00:06:24.268Z,10.50
2022-09-13T00:08:53.530Z,10.40
2022-09-13T00:11:23.708Z,10.40
2022-09-13T00:13:51.075Z,10.40
2022-09-13T00:16:20.621Z,10.30
2022-09-13T00:18:48.169Z,10.30
2022-09-13T00:21:17.311Z,10.20
2022-09-13T00:23:48.779Z,10.20
2022-09-13T00:26:18.797Z,10.20
2022-09-13T00:28:45.988Z,10.20
2022-09-13T00:31:13.019Z,10.20
2022-09-13T00:33:40.501Z,10.10
2022-09-13T00:36:11.220Z,10.10
2022-09-13T00:38:39.158Z,10.10
2022-09-13T00:41:07.938Z,10.00
2022-09-13T00:43:45.632Z,10.10
2022-09-13T00:46:18.038Z,10.20
2022-09-13T00:48:47.771Z,10.30
2022-09-13T00:51:15.315Z,10.10
2022-09-13T00:53:48.776Z,10.10
2022-09-13T00:56:38.931Z,10.20
2022-09-13T00:59:12.813Z,10.20
2022-09-13T01:01:48.124Z,10.10
2022-09-13T01:04:16.549Z,10.20
2022-09-13T01:06:43.987Z,10.20
2022-09-13T01:09:12.892Z,10.20
2022-09-13T01:11:42.517Z,10.20
2022-09-13T01:14:10.103Z,10.20
2022-09-13T01:16:36.995Z,10.20
2022-09-13T01:19:04.225Z,10.30
2022-09-13T01:22:02.089Z,10.20
2022-09-13T01:24:53.723Z,10.20
2022-09-13T01:27:41.009Z,10.20
2022-09-13T01:30:52.027Z,9.90
2022-09-13T01:33:32.022Z,9.90
2022-09-13T01:36:31.963Z,10.20
2022-09-13T01:39:16.910Z,10.30
2022-09-13T01:41:59.549Z,10.70
2022-09-13T01:44:29.030Z,10.20
2022-09-13T01:47:04.790Z,10.30
2022-09-13T01:49:44.191Z,10.20
2022-09-13T01:52:32.918Z,10.30
2022-09-13T01:55:11.807Z,10.30
2022-09-13T01:57:49.242Z,10.20
2022-09-13T02:00:18.449Z,10.30
2022-09-13T02:03:08.847Z,10.30
2022-09-13T02:05:53.843Z,10.30
2022-09-13T02:08:34.749Z,10.30
2022-09-13T02:11:09.524Z,10.20
2022-09-13T02:13:48.189Z,10.20
2022-09-13T02:16:32.124Z,10.20
2022-09-13T02:19:08.732Z,10.20
2022-09-13T02:21:40.006Z,10.20
2022-09-13T02:24:21.716Z,10.30
2022-09-13T02:26:53.307Z,10.20
2022-09-13T02:29:24.713Z,10.20
2022-09-13T02:32:16.173Z,10.30
2022-09-13T02:34:54.158Z,10.00
2022-09-13T02:37:23.217Z,10.10
2022-09-13T02:39:57.808Z,10.20
2022-09-13T02:42:36.471Z,10.20
2022-09-13T02:45:03.895Z,10.30
2022-09-13T02:47:42.776Z,10.20
2022-09-13T02:50:30.252Z,10.20
2022-09-13T02:53:15.119Z,9.90
2022-09-13T02:56:00.305Z,10.10
2022-09-13T02:59:08.595Z,10.10
2022-09-13T03:01:37.728Z,10.10
2022-09-13T03:04:04.669Z,10.20
2022-09-13T03:06:31.712Z,10.10
2022-09-13T03:09:03.934Z,10.10
2022-09-13T03:11:33.544Z,10.10
2022-09-13T03:14:20.766Z,10.10
2022-09-13T03:17:11.239Z,10.30
2022-09-13T03:19:48.866Z,10.10
2022-09-13T03:22:52.618Z,10.00
2022-09-13T03:25:25.451Z,9.90
2022-09-13T03:28:13.948Z,10.00
2022-09-13T03:30:49.636Z,10.00
2022-09-13T03:33:36.681Z,10.00
2022-09-13T03:36:33.322Z,9.90
2022-09-13T03:39:15.216Z,9.60
2022-09-13T03:41:48.642Z,9.90
2022-09-13T03:44:16.956Z,9.80
2022-09-13T03:46:54.914Z,9.80
2022-09-13T03:49:23.626Z,9.80
2022-09-13T03:51:52.942Z,9.80
2022-09-13T03:54:19.791Z,9.80
2022-09-13T03:57:11.587Z,9.80
2022-09-13T03:59:42.304Z,9.50
2022-09-13T04:02:12.069Z,9.90
2022-09-13T04:04:40.636Z,9.80
2022-09-13T04:07:08.436Z,9.90
2022-09-13T04:09:35.342Z,9.90
2022-09-13T04:12:02.610Z,9.80
2022-09-13T04:14:30.091Z,9.70
2022-09-13T04:16:58.164Z,9.70
2022-09-13T04:19:26.287Z,9.60
2022-09-13T04:21:55.980Z,9.70
2022-09-13T04:24:26.957Z,9.50
2022-09-13T04:26:54.602Z,9.50
2022-09-13T04:29:23.172Z,9.50
2022-09-13T04:31:51.410Z,9.60
2022-09-13T04:34:18.755Z,9.60
2022-09-13T04:36:46.472Z,9.60
2022-09-13T04:39:16.300Z,9.70
2022-09-13T04:41:46.049Z,9.60
2022-09-13T04:44:13.321Z,9.70
2022-09-13T04:46:40.193Z,9.60
2022-09-13T04:49:07.238Z,9.70
2022-09-13T04:51:34.139Z,9.70
2022-09-13T04:54:01.050Z,9.80
2022-09-13T04:56:28.301Z,9.90
2022-09-13T04:58:55.877Z,9.90
2022-09-13T05:01:27.706Z,9.80
2022-09-13T05:03:55.504Z,9.60
2022-09-13T05:06:23.038Z,9.80
2022-09-13T05:08:53.050Z,9.90
2022-09-13T05:11:20.180Z,10.00
2022-09-13T05:13:55.278Z,10.20
2022-09-13T05:16:24.458Z,9.90
2022-09-13T05:18:52.289Z,10.20
2022-09-13T05:21:19.934Z,10.10
2022-09-13T05:23:50.415Z,10.10
2022-09-13T05:26:18.171Z,10.30
2022-09-13T05:28:45.200Z,10.40
2022-09-13T05:31:25.038Z,10.40
2022-09-13T05:34:00.783Z,10.20
2022-09-13T05:36:28.667Z,10.10
2022-09-13T05:39:18.628Z,10.10
2022-09-13T05:41:43.474Z,10.30
2022-09-13T05:44:13.126Z,10.20
2022-09-13T05:46:41.680Z,10.30
2022-09-13T05:49:08.700Z,10.30
2022-09-13T05:51:36.474Z,10.30
2022-09-13T05:54:03.586Z,10.30
2022-09-13T05:56:32.242Z,10.40
2022-09-13T05:58:59.418Z,10.40
2022-09-13T06:01:28.735Z,10.50
2022-09-13T06:03:57.709Z,10.50
2022-09-13T06:06:25.475Z,10.50
2022-09-13T06:08:53.837Z,10.70
2022-09-13T06:11:21.145Z,10.80
2022-09-13T06:13:47.979Z,10.90
2022-09-13T06:16:16.243Z,11.10
2022-09-13T06:18:44.012Z,11.40
2022-09-13T06:21:18.096Z,11.70
2022-09-13T06:23:51.171Z,11.90
2022-09-13T06:26:20.411Z,12.30
2022-09-13T06:28:49.234Z,12.60
2022-09-13T06:31:18.216Z,13.20
2022-09-13T06:33:45.778Z,13.50
2022-09-13T06:36:15.020Z,14.50
2022-09-13T06:38:42.325Z,15.80
2022-09-13T06:41:12.529Z,14.10
2022-09-13T06:43:40.253Z,14.10
2022-09-13T06:46:21.530Z,14.70
2022-09-13T06:48:51.600Z,15.40
2022-09-13T06:51:23.924Z,15.50
2022-09-13T06:53:52.086Z,15.40
2022-09-13T06:56:22.717Z,15.40
2022-09-13T06:58:52.214Z,15.10
2022-09-13T07:01:28.207Z,15.50
2022-09-13T07:04:01.207Z,16.30
2022-09-13T07:06:31.136Z,16.50
2022-09-13T07:08:59.976Z,17.40
2022-09-13T07:11:30.290Z,18.10
2022-09-13T07:13:58.691Z,18.00
2022-09-13T07:16:28.109Z,17.00
2022-09-13T07:18:57.375Z,16.50
2022-09-13T07:21:25.279Z,16.40
2022-09-13T07:23:53.388Z,15.20
2022-09-13T07:26:21.062Z,14.60
2022-09-13T07:28:52.228Z,14.40
2022-09-13T07:31:24.975Z,14.20
2022-09-13T07:34:00.594Z,14.00
2022-09-13T07:36:29.185Z,14.70
2022-09-13T07:38:56.068Z,15.30
2022-09-13T07:41:24.674Z,17.10
2022-09-13T07:43:52.459Z,16.70
2022-09-13T07:46:24.610Z,16.40
2022-09-13T07:48:54.568Z,17.00
2022-09-13T07:51:24.633Z,17.10
2022-09-13T07:53:57.293Z,17.60
2022-09-13T07:56:36.092Z,18.00
2022-09-13T07:59:06.059Z,17.60
2022-09-13T08:01:38.742Z,16.80
2022-09-13T08:04:09.511Z,16.40
2022-09-13T08:06:37.992Z,16.90
2022-09-13T08:09:07.550Z,16.80
2022-09-13T08:11:40.539Z,16.90
2022-09-13T08:14:09.732Z,17.40
2022-09-13T08:16:37.272Z,17.10
2022-09-13T08:19:05.387Z,16.30
2022-09-13T08:21:38.198Z,16.30
2022-09-13T08:24:07.267Z,16.80
2022-09-13T08:26:35.963Z,17.30
2022-09-13T08:29:05.246Z,18.20
2022-09-13T08:31:33.090Z,17.70
2022-09-13T08:34:00.051Z,17.20
2022-09-13T08:36:28.283Z,17.50
2022-09-13T08:39:00.539Z,18.30
2022-09-13T08:41:44.438Z,18.70
2022-09-13T08:44:36.729Z,19.30
2022-09-13T08:47:24.848Z,19.20
2022-09-13T08:50:00.213Z,18.50
2022-09-13T08:52:41.852Z,19.00
2022-09-13T08:55:20.302Z,20.20
2022-09-13T08:58:11.494Z,20.70
2022-09-13T09:00:44.416Z,20.30
2022-09-13T09:03:40.172Z,20.10
2022-09-13T09:06:14.574Z,20.40
2022-09-13T09:09:08.233Z,19.90
2022-09-13T09:11:44.403Z,19.60
2022-09-13T09:14:35.654Z,19.00
2022-09-13T09:17:07.277Z,19.70
2022-09-13T09:19:53.457Z,19.70
2022-09-13T09:22:24.721Z,20.60
2022-09-13T09:24:55.722Z,20.70
2022-09-13T09:27:23.350Z,20.20
2022-09-13T09:29:53.776Z,20.60
2022-09-13T09:32:36.303Z,20.90
2022-09-13T09:35:15.488Z,21.50
2022-09-13T09:37:46.023Z,21.00
2022-09-13T09:40:14.580Z,21.60
2022-09-13T09:42:47.788Z,21.00
2022-09-13T09:45:33.947Z,21.50
2022-09-13T09:48:13.083Z,21.20
2022-09-13T09:50:46.594Z,22.00
2022-09-13T09:53:29.418Z,22.10
2022-09-13T09:56:16.714Z,22.30
2022-09-13T09:58:46.241Z,21.30
2022-09-13T10:01:34.212Z,21.70
2022-09-13T10:04:09.078Z,22.00
2022-09-13T10:06:38.859Z,22.80
2022-09-13T10:09:14.911Z,22.10
2022-09-13T10:11:46.504Z,22.50
2022-09-13T10:14:28.300Z,23.60
2022-09-13T10:17:21.318Z,23.90
2022-09-13T10:19:59.420Z,23.10
2022-09-13T10:22:28.075Z,24.10
2022-09-13T10:24:55.243Z,23.90
2022-09-13T10:27:44.135Z,23.50
2022-09-13T10:30:28.236Z,24.50
2022-09-13T10:32:59.064Z,23.00
2022-09-13T10:35:26.746Z,22.60
2022-09-13T10:37:53.726Z,23.00
2022-09-13T10:40:29.083Z,21.70
2022-09-13T10:43:01.985Z,21.20
2022-09-13T10:45:31.603Z,21.50
2022-09-13T10:48:13.102Z,22.50
2022-09-13T10:50:40.017Z,23.90
2022-09-13T10:53:31.565Z,24.00
2022-09-13T10:55:58.438Z,23.80
2022-09-13T10:58:25.269Z,24.50
2022-09-13T11:00:57.983Z,25.60
2022-09-13T11:03:53.079Z,25.20
2022-09-13T11:06:30.665Z,25.60
2022-09-13T11:09:17.983Z,25.50
2022-09-13T11:12:10.697Z,25.40
2022-09-13T11:14:46.451Z,25.70
2022-09-13T11:17:50.852Z,24.60
2022-09-13T11:20:59.686Z,24.80
2022-09-13T11:23:35.795Z,24.40
2022-09-13T11:26:18.546Z,24.20
2022-09-13T11:28:51.097Z,23.30
2022-09-13T11:31:45.236Z,23.80
2022-09-13T11:34:28.945Z,24.30
2022-09-13T11:37:14.713Z,23.50
2022-09-13T11:39:50.458Z,23.00
2022-09-13T11:42:35.563Z,23.00
2022-09-13T11:45:21.961Z,23.90
2022-09-13T11:48:26.212Z,25.00
2022-09-13T11:51:25.354Z,25.20
2022-09-13T11:54:18.266Z,26.40
2022-09-13T11:56:48.608Z,25.80
2022-09-13T11:59:27.622Z,25.10
2022-09-13T12:02:12.192Z,24.90
2022-09-13T12:04:44.380Z,23.80
2022-09-13T12:07:19.401Z,24.20
2022-09-13T12:09:57.746Z,23.60
2022-09-13T12:12:29.379Z,24.50
2022-09-13T12:15:08.008Z,24.20
2022-09-13T12:17:43.528Z,24.50
2022-09-13T12:20:33.452Z,24.50
2022-09-13T12:23:04.866Z,23.80
2022-09-13T12:25:57.562Z,23.00
2022-09-13T12:28:37.553Z,22.30
2022-09-13T12:31:19.783Z,22.10
2022-09-13T12:33:48.734Z,21.90
2022-09-13T12:36:45.375Z,22.30
2022-09-13T12:39:29.131Z,22.50
2022-09-13T12:42:18.455Z,21.90
2022-09-13T12:45:23.195Z,21.70
2022-09-13T12:48:05.431Z,21.50
2022-09-13T12:50:43.828Z,21.10
2022-09-13T12:53:29.133Z,20.50
2022-09-13T12:56:31.298Z,20.40
2022-09-13T12:59:09.633Z,20.40
2022-09-13T13:01:36.777Z,20.00
2022-09-13T13:04:28.930Z,20.10
2022-09-13T13:07:16.352Z,19.80
2022-09-13T13:09:44.669Z,19.90
2022-09-13T13:12:25.048Z,19.90
2022-09-13T13:14:53.801Z,19.70
2022-09-13T13:17:49.463Z,19.40
2022-09-13T13:20:53.241Z,19.30
2022-09-13T13:23:31.056Z,19.40
2022-09-13T13:26:09.702Z,19.40
2022-09-13T13:28:45.708Z,19.00
2022-09-13T13:31:24.753Z,19.00
2022-09-13T13:34:02.058Z,18.80
2022-09-13T13:36:35.250Z,18.70
2022-09-13T13:39:02.992Z,19.00
2022-09-13T13:41:38.486Z,18.90
2022-09-13T13:44:23.408Z,19.10
2022-09-13T13:46:55.626Z,19.20
2022-09-13T13:49:31.261Z,19.10
2022-09-13T13:52:10.336Z,19.10
2022-09-13T13:54:45.920Z,19.00
2022-09-13T13:57:45.229Z,18.80
2022-09-13T14:00:16.751Z,18.60
2022-09-13T14:02:53.620Z,18.50
2022-09-13T14:05:32.603Z,18.30
2022-09-13T14:08:33.649Z,18.40
2022-09-13T14:11:11.075Z,18.20
2022-09-13T14:13:56.125Z,18.30
2022-09-13T14:16:29.352Z,18.10
2022-09-13T14:19:14.999Z,18.10
2022-09-13T14:21:42.593Z,18.10
2022-09-13T14:24:16.807Z,18.00
2022-09-13T14:26:44.782Z,18.10
2022-09-13T14:29:21.132Z,18.00
2022-09-13T14:31:53.633Z,18.00
2022-09-13T14:34:28.011Z,18.10
2022-09-13T14:36:57.780Z,18.10
2022-09-13T14:39:25.625Z,18.20
2022-09-13T14:42:12.886Z,18.10
2022-09-13T14:44:48.253Z,18.00
2022-09-13T14:47:27.379Z,18.20
2022-09-13T14:50:04.053Z,18.00
2022-09-13T14:52:36.259Z,17.80
2022-09-13T14:55:09.890Z,17.80
2022-09-13T14:57:42.201Z,17.80
2022-09-13T15:00:15.010Z,17.80
2022-09-13T15:03:05.167Z,18.00
2022-09-13T15:05:35.188Z,18.10
2022-09-13T15:08:40.354Z,17.80
2022-09-13T15:11:13.243Z,17.80
2022-09-13T15:13:42.860Z,17.80
2022-09-13T15:16:35.823Z,17.80
2022-09-13T15:19:17.013Z,17.70
2022-09-13T15:21:45.634Z,17.80
2022-09-13T15:24:29.575Z,17.90
2022-09-13T15:27:05.898Z,18.20
2022-09-13T15:29:35.022Z,18.30
2022-09-13T15:32:06.679Z,18.30
2022-09-13T15:34:33.774Z,18.20
2022-09-13T15:37:11.825Z,18.10
2022-09-13T15:39:50.585Z,18.10
2022-09-13T15:42:17.823Z,18.00
2022-09-13T15:44:44.723Z,18.00
2022-09-13T15:47:18.309Z,18.00
2022-09-13T15:49:51.087Z,17.90
2022-09-13T15:52:19.927Z,17.70
2022-09-13T15:54:49.802Z,17.70
2022-09-13T15:57:21.685Z,17.50
2022-09-13T15:59:49.023Z,17.60
2022-09-13T16:02:28.581Z,17.50
2022-09-13T16:04:56.352Z,17.50
2022-09-13T16:07:24.825Z,17.50
2022-09-13T16:09:53.411Z,17.50
2022-09-13T16:12:23.561Z,17.40
2022-09-13T16:14:50.517Z,17.30
2022-09-13T16:17:24.709Z,17.40
2022-09-13T16:19:52.386Z,17.30
2022-09-13T16:22:19.280Z,17.20
2022-09-13T16:24:46.526Z,17.20
2022-09-13T16:27:15.075Z,17.10
2022-09-13T16:29:42.176Z,17.00
2022-09-13T16:32:09.818Z,17.00
2022-09-13T16:34:36.664Z,16.90
2022-09-13T16:37:03.565Z,16.80
2022-09-13T16:39:30.454Z,16.70
2022-09-13T16:41:57.327Z,16.70
2022-09-13T16:44:24.283Z,16.70
2022-09-13T16:46:51.219Z,16.70
2022-09-13T16:49:18.205Z,16.80
2022-09-13T16:51:45.428Z,16.60
2022-09-13T16:54:12.409Z,16.70
2022-09-13T16:56:39.251Z,16.70
2022-09-13T16:59:06.111Z,16.70
2022-09-13T17:01:33.263Z,16.60
2022-09-13T17:04:00.269Z,16.60
2022-09-13T17:06:27.895Z,16.50
2022-09-13T17:09:03.646Z,16.40
2022-09-13T17:11:33.790Z,16.50
2022-09-13T17:14:03.627Z,16.60
2022-09-13T17:16:35.698Z,16.60
2022-09-13T17:19:06.415Z,16.60
2022-09-13T17:21:34.058Z,16.50
2022-09-13T17:24:02.122Z,16.50
2022-09-13T17:26:29.252Z,16.40
2022-09-13T17:28:56.172Z,16.30
2022-09-13T17:31:23.542Z,16.30
2022-09-13T17:33:50.885Z,16.20
2022-09-13T17:36:17.874Z,16.30
2022-09-13T17:38:45.650Z,16.30
2022-09-13T17:41:13.693Z,16.30
2022-09-13T17:43:42.918Z,16.20
2022-09-13T17:46:22.457Z,16.20
2022-09-13T17:48:52.222Z,16.20
2022-09-13T17:51:25.451Z,16.10
2022-09-13T17:53:53.773Z,16.10
2022-09-13T17:56:27.252Z,16.10
2022-09-13T17:58:54.120Z,15.90
2022-09-13T18:01:21.067Z,16.00
2022-09-13T18:03:48.202Z,15.90
2022-09-13T18:06:15.221Z,16.00
2022-09-13T18:08:42.973Z,15.90
2022-09-13T18:11:19.407Z,15.80
2022-09-13T18:13:49.366Z,15.90
2022-09-13T18:16:21.379Z,15.80
2022-09-13T18:18:49.919Z,15.80
2022-09-13T18:21:19.286Z,15.90
2022-09-13T18:23:51.167Z,15.80
2022-09-13T18:26:20.873Z,15.80
2022-09-13T18:28:48.498Z,15.80
2022-09-13T18:31:17.987Z,15.80
2022-09-13T18:33:45.943Z,15.80
2022-09-13T18:36:15.983Z,15.70
2022-09-13T18:38:44.989Z,15.60
2022-09-13T18:41:17.910Z,15.70
2022-09-13T18:43:46.375Z,15.60
2022-09-13T18:46:16.232Z,15.70
2022-09-13T18:48:45.652Z,15.70
2022-09-13T18:51:18.379Z,15.70
2022-09-13T18:53:46.190Z,15.50
2022-09-13T18:56:15.301Z,15.60
2022-09-13T18:58:43.577Z,15.60
2022-09-13T19:01:12.956Z,15.60
2022-09-13T19:03:46.634Z,15.70
2022-09-13T19:06:21.093Z,15.60
2022-09-13T19:08:49.818Z,15.60
2022-09-13T19:11:42.248Z,15.40
2022-09-13T19:14:05.624Z,15.50
2022-09-13T19:16:32.801Z,15.60
2022-09-13T19:18:59.928Z,15.50
2022-09-13T19:21:30.102Z,15.50
2022-09-13T19:24:00.998Z,15.60
2022-09-13T19:26:36.467Z,15.60
2022-09-13T19:29:08.675Z,15.60
2022-09-13T19:31:38.713Z,15.40
2022-09-13T19:34:06.404Z,15.40
2022-09-13T19:36:35.699Z,15.40
2022-09-13T19:39:04.054Z,15.40
2022-09-13T19:41:31.051Z,15.50
2022-09-13T19:44:00.629Z,15.50
2022-09-13T19:46:32.989Z,15.50
2022-09-13T19:49:01.693Z,15.40
2022-09-13T19:51:31.241Z,15.40
2022-09-13T19:53:59.484Z,15.40
2022-09-13T19:56:34.753Z,15.40
2022-09-13T19:59:03.040Z,15.30
2022-09-13T20:01:35.231Z,15.20
2022-09-13T20:04:04.923Z,15.20
2022-09-13T20:06:42.932Z,15.30
2022-09-13T20:09:11.319Z,15.20
2022-09-13T20:11:42.406Z,15.20
2022-09-13T20:14:10.767Z,15.20
2022-09-13T20:16:39.952Z,15.40
2022-09-13T20:19:36.309Z,15.10
2022-09-13T20:21:57.755Z,15.20
2022-09-13T20:24:24.583Z,15.20
2022-09-13T20:26:52.316Z,15.30
2022-09-13T20:29:19.650Z,15.40
2022-09-13T20:31:46.620Z,15.20
2022-09-13T20:34:17.558Z,14.90
2022-09-13T20:36:45.582Z,15.10
2022-09-13T20:39:15.031Z,15.10
2022-09-13T20:41:43.368Z,15.10
2022-09-13T20:44:10.855Z,15.00
2022-09-13T20:46:40.303Z,15.10
2022-09-13T20:49:09.220Z,15.20
2022-09-13T20:51:37.334Z,15.20
2022-09-13T20:54:04.951Z,15.10
2022-09-13T20:56:35.582Z,15.10
2022-09-13T20:59:02.861Z,15.10
2022-09-13T21:01:31.618Z,15.10
2022-09-13T21:03:59.787Z,15.10
2022-09-13T21:06:29.465Z,15.20
2022-09-13T21:08:59.897Z,15.00
2022-09-13T21:11:34.939Z,14.90
2022-09-13T21:14:04.875Z,14.90
2022-09-13T21:16:34.464Z,14.90
2022-09-13T21:19:01.662Z,15.00
2022-09-13T21:21:31.514Z,15.10
2022-09-13T21:24:00.522Z,15.10
2022-09-13T21:26:28.975Z,15.30
2022-09-13T21:28:56.969Z,15.20
2022-09-13T21:31:29.979Z,14.90
2022-09-13T21:33:59.324Z,15.10
2022-09-13T21:36:27.617Z,15.40
2022-09-13T21:38:56.029Z,15.20
2022-09-13T21:41:24.709Z,15.10
2022-09-13T21:43:51.917Z,15.30
2022-09-13T21:46:22.286Z,15.20
2022-09-13T21:48:51.871Z,15.10
2022-09-13T21:51:26.483Z,15.20
2022-09-13T21:53:58.687Z,15.20
2022-09-13T21:56:28.571Z,15.10
2022-09-13T21:59:04.461Z,15.20
2022-09-13T22:01:37.198Z,15.00
2022-09-13T22:04:04.412Z,15.20
2022-09-13T22:06:34.590Z,15.20
2022-09-13T22:09:04.399Z,15.10
2022-09-13T22:11:38.721Z,15.20
2022-09-13T22:14:07.402Z,15.20
2022-09-13T22:16:36.836Z,15.20
2022-09-13T22:19:10.146Z,15.10
2022-09-13T22:21:39.472Z,15.10
2022-09-13T22:24:07.902Z,15.20
2022-09-13T22:26:38.531Z,15.10
2022-09-13T22:29:05.385Z,15.10
2022-09-13T22:31:35.319Z,15.10
2022-09-13T22:34:03.498Z,15.10
2022-09-13T22:36:30.720Z,15.00
2022-09-13T22:38:58.689Z,15.10
2022-09-13T22:41:28.490Z,15.10
2022-09-13T22:43:55.929Z,15.20
2022-09-13T22:46:31.426Z,15.10
2022-09-13T22:48:58.452Z,15.30
2022-09-13T22:51:25.736Z,15.10
2022-09-13T22:53:54.170Z,15.10
2022-09-13T22:56:32.866Z,15.10
2022-09-13T22:59:17.956Z,15.10
2022-09-13T23:01:45.209Z,15.10
2022-09-13T23:04:12.850Z,15.10
2022-09-13T23:06:40.428Z,15.20
2022-09-13T23:09:08.703Z,15.20
2022-09-13T23:11:38.126Z,15.20
2022-09-13T23:14:07.771Z,15.30
2022-09-13T23:16:37.478Z,15.30
2022-09-13T23:19:05.183Z,15.40
2022-09-13T23:21:35.803Z,15.30
2022-09-13T23:24:04.302Z,15.40
2022-09-13T23:26:31.674Z,15.50
2022-09-13T23:29:00.538Z,15.40
2022-09-13T23:31:35.808Z,15.40
2022-09-13T23:34:05.342Z,15.40
2022-09-13T23:36:37.309Z,15.30
2022-09-13T23:39:05.808Z,15.20
2022-09-13T23:41:33.371Z,15.20
2022-09-13T23:44:01.347Z,15.30
2022-09-13T23:46:29.132Z,15.30
2022-09-13T23:48:56.597Z,15.20
2022-09-13T23:51:25.397Z,15.10
2022-09-13T23:53:57.020Z,15.10
2022-09-13T23:56:29.077Z,15.20
2022-09-13T23:59:00.267Z,15.20
